createdAt,value
2022-12-18T00:01:14.512Z,28.70
2022-12-18T00:03:41.367Z,31.35
2022-12-18T00:06:09.291Z,30.88
2022-12-18T00:08:36.167Z,27.58
2022-12-18T00:11:07.264Z,31.13
2022-12-18T00:13:33.855Z,28.67
2022-12-18T00:16:05.427Z,24.90
2022-12-18T00:18:32.556Z,23.38
2022-12-18T00:21:04.168Z,28.50
2022-12-18T00:23:31.833Z,29.02
2022-12-18T00:26:02.766Z,22.75
2022-12-18T00:28:29.143Z,21.23
2022-12-18T00:31:25.557Z,20.52
2022-12-18T00:33:54.199Z,22.90
2022-12-18T00:36:24.339Z,22.38
2022-12-18T00:38:50.971Z,19.42
2022-12-18T00:41:38.520Z,22.35
2022-12-18T00:44:06.728Z,20.25
2022-12-18T00:46:33.345Z,18.50
2022-12-18T00:49:00.050Z,21.90
2022-12-18T00:51:26.470Z,20.77
2022-12-18T00:53:53.573Z,24.63
2022-12-18T00:56:19.865Z,21.73
2022-12-18T00:58:46.163Z,16.88
2022-12-18T01:01:12.529Z,16.23
2022-12-18T01:03:39.241Z,18.92
2022-12-18T01:06:08.715Z,16.55
2022-12-18T01:08:35.775Z,15.30
2022-12-18T01:11:08.163Z,16.35
2022-12-18T01:13:34.495Z,14.57
2022-12-18T01:16:00.950Z,14.50
2022-12-18T01:18:27.288Z,18.80
2022-12-18T01:23:35.127Z,14.07
2022-12-18T01:26:14.763Z,12.63
2022-12-18T01:28:41.925Z,14.02
2022-12-18T01:31:11.572Z,16.50
2022-12-18T01:33:38.420Z,15.07
2022-12-18T01:36:05.529Z,15.77
2022-12-18T01:38:32.162Z,11.57
2022-12-18T01:40:59.761Z,12.77
2022-12-18T01:43:42.726Z,12.93
2022-12-18T01:48:35.981Z,12.40
2022-12-18T01:51:02.833Z,11.60
2022-12-18T01:53:29.641Z,12.82
2022-12-18T01:55:58.598Z,12.45
2022-12-18T01:58:54.772Z,11.73
2022-12-18T02:01:24.174Z,13.18
2022-12-18T02:03:51.084Z,11.75
2022-12-18T02:06:34.380Z,10.55
2022-12-18T02:09:16.092Z,11.10
2022-12-18T02:11:54.805Z,11.18
2022-12-18T02:14:44.789Z,9.50
2022-12-18T02:17:21.185Z,9.38
2022-12-18T02:20:06.151Z,10.35
2022-12-18T02:22:44.349Z,8.35
2022-12-18T02:25:48.058Z,10.15
2022-12-18T02:28:17.948Z,10.88
2022-12-18T02:30:50.156Z,10.73
2022-12-18T02:33:20.135Z,7.70
2022-12-18T02:35:48.120Z,7.78
2022-12-18T02:38:16.712Z,6.47
2022-12-18T02:40:44.070Z,9.73
2022-12-18T02:43:13.915Z,6.55
2022-12-18T02:45:56.051Z,8.80
2022-12-18T02:48:30.165Z,4.35
2022-12-18T02:51:09.295Z,7.25
2022-12-18T02:53:46.627Z,5.22
2022-12-18T02:56:19.740Z,5.60
2022-12-18T02:59:05.539Z,5.78
2022-12-18T03:01:42.185Z,4.03
2022-12-18T03:04:39.548Z,7.22
2022-12-18T03:07:16.668Z,4.60
2022-12-18T03:09:48.081Z,5.22
2022-12-18T03:12:30.261Z,5.50
2022-12-18T03:15:17.853Z,3.03
2022-12-18T03:17:51.188Z,4.97
2022-12-18T03:20:21.448Z,3.65
2022-12-18T03:22:52.138Z,3.75
2022-12-18T03:25:20.421Z,7.90
2022-12-18T03:27:52.933Z,3.85
2022-12-18T03:30:19.749Z,3.03
2022-12-18T03:32:49.985Z,4.13
2022-12-18T03:35:22.596Z,4.25
2022-12-18T03:37:49.551Z,7.30
2022-12-18T03:40:16.230Z,3.90
2022-12-18T03:42:59.955Z,3.85
2022-12-18T03:45:40.659Z,3.38
2022-12-18T03:48:17.199Z,5.20
2022-12-18T03:50:53.787Z,5.88
2022-12-18T03:53:26.303Z,4.65
2022-12-18T03:55:53.667Z,3.67
2022-12-18T03:58:26.603Z,4.72
2022-12-18T04:00:57.071Z,4.95
2022-12-18T04:03:26.715Z,4.43
2022-12-18T04:05:56.398Z,4.45
2022-12-18T04:08:24.853Z,6.40
2022-12-18T04:10:51.427Z,5.18
2022-12-18T04:13:44.407Z,6.07
2022-12-18T04:16:11.049Z,4.93
2022-12-18T04:18:37.848Z,5.20
2022-12-18T04:21:04.760Z,3.58
2022-12-18T04:23:31.281Z,5.20
2022-12-18T04:25:57.864Z,3.92
2022-12-18T04:28:24.388Z,3.17
2022-12-18T04:30:51.118Z,3.03
2022-12-18T04:33:17.738Z,3.67
2022-12-18T04:35:44.465Z,3.47
2022-12-18T04:38:11.309Z,3.20
2022-12-18T04:40:38.795Z,2.95
2022-12-18T04:43:05.903Z,3.20
2022-12-18T04:45:33.226Z,3.28
2022-12-18T04:48:00.654Z,3.38
2022-12-18T04:50:27.280Z,4.28
2022-12-18T04:52:54.191Z,4.55
2022-12-18T04:55:20.810Z,2.88
2022-12-18T04:57:47.410Z,5.05
2022-12-18T05:00:14.729Z,6.13
2022-12-18T05:02:41.432Z,4.22
2022-12-18T05:05:08.630Z,3.47
2022-12-18T05:07:35.115Z,5.68
2022-12-18T05:10:01.713Z,3.33
2022-12-18T05:12:28.260Z,3.78
2022-12-18T05:14:54.769Z,3.53
2022-12-18T05:17:21.273Z,3.80
2022-12-18T05:19:47.855Z,3.45
2022-12-18T05:22:14.369Z,4.90
2022-12-18T05:24:40.938Z,3.38
2022-12-18T05:27:07.531Z,3.88
2022-12-18T05:29:34.251Z,3.53
2022-12-18T05:32:00.873Z,3.90
2022-12-18T05:34:27.318Z,3.80
2022-12-18T05:36:53.831Z,3.70
2022-12-18T05:39:20.327Z,3.85
2022-12-18T05:41:46.788Z,3.67
2022-12-18T05:44:13.467Z,3.00
2022-12-18T05:46:40.037Z,5.63
2022-12-18T05:49:07.340Z,4.22
2022-12-18T05:51:33.889Z,5.05
2022-12-18T05:54:00.474Z,5.43
2022-12-18T05:56:27.021Z,3.20
2022-12-18T05:58:54.959Z,3.47
2022-12-18T06:01:26.307Z,5.50
2022-12-18T06:03:53.215Z,3.33
2022-12-18T06:06:23.470Z,5.32
2022-12-18T06:08:51.606Z,6.38
2022-12-18T06:11:21.426Z,4.35
2022-12-18T06:13:54.793Z,4.38
2022-12-18T06:16:24.696Z,4.82
2022-12-18T06:18:51.226Z,2.97
2022-12-18T06:21:17.721Z,3.00
2022-12-18T06:23:44.568Z,4.45
2022-12-18T06:26:13.103Z,3.45
2022-12-18T06:28:39.990Z,4.70
2022-12-18T06:31:07.536Z,3.83
2022-12-18T06:33:35.038Z,4.43
2022-12-18T06:36:07.210Z,6.07
2022-12-18T06:38:35.470Z,5.43
2022-12-18T06:41:06.691Z,4.07
2022-12-18T06:43:33.363Z,5.55
2022-12-18T06:46:01.543Z,8.00
2022-12-18T06:48:28.505Z,2.90
2022-12-18T06:50:55.185Z,5.15
2022-12-18T06:53:21.699Z,5.05
2022-12-18T06:55:48.224Z,3.92
2022-12-18T06:58:14.804Z,5.03
2022-12-18T07:00:41.625Z,4.95
2022-12-18T07:03:08.493Z,3.63
2022-12-18T07:05:35.397Z,3.25
2022-12-18T07:08:01.905Z,3.75
2022-12-18T07:10:28.377Z,5.13
2022-12-18T07:12:54.853Z,4.00
2022-12-18T07:15:21.333Z,4.13
2022-12-18T07:17:47.978Z,4.88
2022-12-18T07:20:14.394Z,6.40
2022-12-18T07:22:40.715Z,4.10
2022-12-18T07:25:07.874Z,5.05
2022-12-18T07:27:34.201Z,5.03
2022-12-18T07:30:00.539Z,3.08
2022-12-18T07:32:26.831Z,4.18
2022-12-18T07:34:53.126Z,4.47
2022-12-18T07:37:19.443Z,3.25
2022-12-18T07:39:45.749Z,4.35
2022-12-18T07:42:32.885Z,4.60
2022-12-18T07:45:01.199Z,5.15
2022-12-18T07:47:29.140Z,5.55
2022-12-18T07:49:56.347Z,3.80
2022-12-18T07:52:25.912Z,8.50
2022-12-18T07:54:52.752Z,5.47
2022-12-18T07:57:48.392Z,6.00
2022-12-18T08:00:06.043Z,5.63
2022-12-18T08:02:32.881Z,3.92
2022-12-18T08:04:59.440Z,5.97
2022-12-18T08:07:25.781Z,5.35
2022-12-18T08:09:52.227Z,5.93
2022-12-18T08:12:18.512Z,6.63
2022-12-18T08:14:44.828Z,5.65
2022-12-18T08:17:11.159Z,6.57
2022-12-18T08:19:37.555Z,5.28
2022-12-18T08:22:03.893Z,5.90
2022-12-18T08:24:30.261Z,5.50
2022-12-18T08:27:27.934Z,7.50
2022-12-18T08:29:44.574Z,5.57
2022-12-18T08:32:10.944Z,7.55
2022-12-18T08:34:37.419Z,6.38
2022-12-18T08:37:03.791Z,8.82
2022-12-18T08:39:30.157Z,6.00
2022-12-18T08:42:14.817Z,4.65
2022-12-18T08:44:42.066Z,5.70
2022-12-18T08:47:08.696Z,6.13
2022-12-18T08:49:36.053Z,6.18
2022-12-18T08:52:03.703Z,5.53
2022-12-18T08:54:30.216Z,5.75
2022-12-18T08:56:56.510Z,4.70
2022-12-18T08:59:24.015Z,4.95
2022-12-18T09:01:50.458Z,8.02
2022-12-18T09:04:17.132Z,5.45
2022-12-18T09:06:43.526Z,5.82
2022-12-18T09:09:10.622Z,7.53
2022-12-18T09:11:37.844Z,8.75
2022-12-18T09:14:04.446Z,5.60
2022-12-18T09:16:33.000Z,7.97
2022-12-18T09:19:00.599Z,6.75
2022-12-18T09:21:29.993Z,5.93
2022-12-18T09:23:57.237Z,6.28
2022-12-18T09:26:24.861Z,6.20
2022-12-18T09:28:51.865Z,6.15
2022-12-18T09:31:21.452Z,5.45
2022-12-18T09:33:47.907Z,8.85
2022-12-18T09:36:16.840Z,6.57
2022-12-18T09:38:43.535Z,7.97
2022-12-18T09:41:45.142Z,9.88
2022-12-18T09:44:15.261Z,4.00
2022-12-18T09:46:47.014Z,5.78
2022-12-18T09:49:17.057Z,5.03
2022-12-18T09:51:47.848Z,5.28
2022-12-18T09:54:21.546Z,6.53
2022-12-18T09:56:48.790Z,5.65
2022-12-18T09:59:21.958Z,5.20
2022-12-18T10:01:48.332Z,8.10
2022-12-18T10:04:14.858Z,7.00
2022-12-18T10:07:04.314Z,7.57
2022-12-18T10:09:47.587Z,6.67
2022-12-18T10:12:20.495Z,6.38
2022-12-18T10:17:21.610Z,5.32
2022-12-18T10:19:55.174Z,5.35
2022-12-18T10:22:30.441Z,6.88
2022-12-18T10:25:14.240Z,7.40
2022-12-18T10:27:41.165Z,6.13
2022-12-18T10:30:15.976Z,5.80
2022-12-18T10:32:42.857Z,6.82
2022-12-18T10:35:19.913Z,6.72
2022-12-18T10:38:04.985Z,7.28
2022-12-18T10:40:32.009Z,6.75
2022-12-18T10:43:07.190Z,8.27
2022-12-18T10:45:33.505Z,6.18
2022-12-18T10:47:59.905Z,7.65
2022-12-18T10:51:09.138Z,9.73
2022-12-18T10:53:26.943Z,7.75
2022-12-18T10:55:56.346Z,7.85
2022-12-18T10:58:27.610Z,6.47
2022-12-18T11:01:08.118Z,7.70
2022-12-18T11:03:57.578Z,7.10
2022-12-18T11:06:27.105Z,8.40
2022-12-18T11:09:03.660Z,8.68
2022-12-18T11:11:33.965Z,7.63
2022-12-18T11:14:06.188Z,7.82
2022-12-18T11:16:57.894Z,6.53
2022-12-18T11:19:34.291Z,7.82
2022-12-18T11:22:04.879Z,7.50
2022-12-18T11:24:33.683Z,5.80
2022-12-18T11:27:03.259Z,7.75
2022-12-18T11:29:46.216Z,8.57
2022-12-18T11:32:16.030Z,7.00
2022-12-18T11:34:47.827Z,8.02
2022-12-18T11:37:20.062Z,7.07
2022-12-18T11:39:53.648Z,11.88
2022-12-18T11:42:28.497Z,8.20
2022-12-18T11:45:24.066Z,7.50
2022-12-18T11:47:56.440Z,9.70
2022-12-18T11:50:27.529Z,9.68
2022-12-18T11:52:58.213Z,7.47
2022-12-18T11:55:40.693Z,6.60
2022-12-18T11:58:22.484Z,9.32
2022-12-18T12:01:05.361Z,9.05
2022-12-18T12:03:49.527Z,8.27
2022-12-18T12:06:22.316Z,9.20
2022-12-18T12:09:09.589Z,10.05
2022-12-18T12:11:57.502Z,8.13
2022-12-18T12:14:53.461Z,9.25
2022-12-18T12:17:51.441Z,9.23
2022-12-18T12:20:26.538Z,14.68
2022-12-18T12:23:26.079Z,10.63
2022-12-18T12:26:03.330Z,10.73
2022-12-18T12:28:39.032Z,9.32
2022-12-18T12:31:33.583Z,9.82
2022-12-18T12:34:20.374Z,12.55
2022-12-18T12:36:58.860Z,11.10
2022-12-18T12:39:32.811Z,10.98
2022-12-18T12:42:18.038Z,13.13
2022-12-18T12:44:55.770Z,13.75
2022-12-18T12:47:28.599Z,14.48
2022-12-18T12:49:59.051Z,19.73
2022-12-18T12:52:40.759Z,14.80
2022-12-18T12:55:19.755Z,17.40
2022-12-18T12:58:18.396Z,13.93
2022-12-18T13:00:57.506Z,14.93
2022-12-18T13:03:44.350Z,14.32
2022-12-18T13:06:28.152Z,16.35
2022-12-18T13:08:54.579Z,17.10
2022-12-18T13:11:59.515Z,16.08
2022-12-18T13:14:33.504Z,15.77
2022-12-18T13:17:21.464Z,15.88
2022-12-18T13:20:09.171Z,17.30
2022-12-18T13:22:50.028Z,13.50
2022-12-18T13:25:38.605Z,16.60
2022-12-18T13:28:22.088Z,14.45
2022-12-18T13:30:58.968Z,15.38
2022-12-18T13:33:31.216Z,15.10
2022-12-18T13:36:09.940Z,13.88
2022-12-18T13:38:39.329Z,16.20
2022-12-18T13:41:29.093Z,13.27
2022-12-18T13:44:00.165Z,11.60
2022-12-18T13:46:42.813Z,12.45
2022-12-18T13:49:15.085Z,12.77
2022-12-18T13:51:48.909Z,15.07
2022-12-18T13:54:20.877Z,12.57
2022-12-18T13:56:49.262Z,11.95
2022-12-18T13:59:15.881Z,11.52
2022-12-18T14:01:45.110Z,11.23
2022-12-18T14:04:22.375Z,12.55
2022-12-18T14:06:52.334Z,12.30
2022-12-18T14:09:27.290Z,13.38
2022-12-18T14:12:15.635Z,13.70
2022-12-18T14:14:45.530Z,11.27
2022-12-18T14:17:13.663Z,13.48
2022-12-18T14:19:49.666Z,12.68
2022-12-18T14:22:19.729Z,11.50
2022-12-18T14:24:46.879Z,10.55
2022-12-18T14:27:25.353Z,10.75
2022-12-18T14:29:52.444Z,13.50
2022-12-18T14:32:20.816Z,11.88
2022-12-18T14:34:50.559Z,12.00
2022-12-18T14:37:22.681Z,11.85
2022-12-18T14:40:11.089Z,9.65
2022-12-18T14:42:38.341Z,10.77
2022-12-18T14:45:41.601Z,10.95
2022-12-18T14:48:31.527Z,10.52
2022-12-18T14:51:01.844Z,14.38
2022-12-18T14:53:40.812Z,8.63
2022-12-18T14:56:21.806Z,10.35
2022-12-18T14:59:22.328Z,13.27
2022-12-18T15:01:50.735Z,8.68
2022-12-18T15:04:36.053Z,9.27
2022-12-18T15:07:06.426Z,9.65
2022-12-18T15:09:33.061Z,8.75
2022-12-18T15:12:01.306Z,10.27
2022-12-18T15:14:30.798Z,8.02
2022-12-18T15:16:58.739Z,9.93
2022-12-18T15:19:36.230Z,8.88
2022-12-18T15:22:06.321Z,8.82
2022-12-18T15:24:33.722Z,9.73
2022-12-18T15:27:01.261Z,8.10
2022-12-18T15:29:30.443Z,9.82
2022-12-18T15:32:01.324Z,9.50
2022-12-18T15:34:27.944Z,9.00
2022-12-18T15:36:54.426Z,7.63
2022-12-18T15:39:20.972Z,9.05
2022-12-18T15:42:06.608Z,8.13
2022-12-18T15:44:35.973Z,8.85
2022-12-18T15:47:02.435Z,7.40
2022-12-18T15:49:28.931Z,6.75
2022-12-18T15:51:59.148Z,7.90
2022-12-18T15:54:44.217Z,7.03
2022-12-18T15:57:27.377Z,6.50
2022-12-18T16:02:23.940Z,7.00
2022-12-18T16:04:53.085Z,7.75
2022-12-18T16:07:25.476Z,4.88
2022-12-18T16:09:53.207Z,5.50
2022-12-18T16:12:23.493Z,5.95
2022-12-18T16:14:50.080Z,5.72
2022-12-18T16:17:16.868Z,6.68
2022-12-18T16:19:43.398Z,7.55
2022-12-18T16:22:20.354Z,7.63
2022-12-18T16:24:46.817Z,5.47
2022-12-18T16:27:13.546Z,8.68
2022-12-18T16:29:40.041Z,5.50
2022-12-18T16:32:06.497Z,7.40
2022-12-18T16:34:36.065Z,7.88
2022-12-18T16:37:06.335Z,7.22
2022-12-18T16:39:35.273Z,6.60
2022-12-18T16:42:07.862Z,6.72
2022-12-18T16:44:34.962Z,5.82
2022-12-18T16:47:03.138Z,7.18
2022-12-18T16:49:30.460Z,6.88
2022-12-18T16:51:57.215Z,6.78
2022-12-18T16:54:23.780Z,6.45
2022-12-18T16:56:51.824Z,9.27
2022-12-18T16:59:18.772Z,8.73
2022-12-18T17:01:45.706Z,6.38
2022-12-18T17:04:12.278Z,7.97
2022-12-18T17:06:44.038Z,6.70
2022-12-18T17:09:16.398Z,6.03
2022-12-18T17:11:43.879Z,7.32
2022-12-18T17:14:15.006Z,6.07
2022-12-18T17:16:41.525Z,8.68
2022-12-18T17:19:10.934Z,7.35
2022-12-18T17:21:41.986Z,8.38
2022-12-18T17:24:08.950Z,8.82
2022-12-18T17:26:35.423Z,7.53
2022-12-18T17:29:02.042Z,6.10
2022-12-18T17:31:30.090Z,8.75
2022-12-18T17:33:57.807Z,8.77
2022-12-18T17:36:28.528Z,7.97
2022-12-18T17:38:58.468Z,8.75
2022-12-18T17:41:26.178Z,7.85
2022-12-18T17:43:53.437Z,9.13
2022-12-18T17:46:20.794Z,9.10
2022-12-18T17:48:47.956Z,9.10
2022-12-18T17:51:15.809Z,8.10
2022-12-18T17:53:43.174Z,10.25
2022-12-18T17:56:14.777Z,11.05
2022-12-18T17:58:42.351Z,11.32
2022-12-18T18:01:09.544Z,12.15
2022-12-18T18:03:39.700Z,12.52
2022-12-18T18:06:07.006Z,11.50
2022-12-18T18:08:35.310Z,10.02
2022-12-18T18:11:30.578Z,12.45
2022-12-18T18:14:00.919Z,11.18
2022-12-18T18:16:34.090Z,9.93
2022-12-18T18:19:02.337Z,12.30
2022-12-18T18:21:29.064Z,13.13
2022-12-18T18:23:59.479Z,11.95
2022-12-18T18:26:29.207Z,11.75
2022-12-18T18:28:57.319Z,12.18
2022-12-18T18:31:23.905Z,11.75
2022-12-18T18:33:50.384Z,12.73
2022-12-18T18:36:16.888Z,15.00
2022-12-18T18:38:48.263Z,13.35
2022-12-18T18:41:15.976Z,12.45
2022-12-18T18:43:43.381Z,13.85
2022-12-18T18:46:13.009Z,12.30
2022-12-18T18:48:40.700Z,14.25
2022-12-18T18:51:16.539Z,14.18
2022-12-18T18:53:49.944Z,13.32
2022-12-18T18:56:56.190Z,16.63
2022-12-18T18:59:06.193Z,13.30
2022-12-18T19:01:33.132Z,14.38
2022-12-18T19:04:02.405Z,16.52
2022-12-18T19:06:29.088Z,13.23
2022-12-18T19:08:58.114Z,14.55
2022-12-18T19:11:44.581Z,16.25
2022-12-18T19:14:13.201Z,15.80
2022-12-18T19:16:40.378Z,15.70
2022-12-18T19:19:07.569Z,17.58
2022-12-18T19:21:34.990Z,15.80
2022-12-18T19:24:24.535Z,19.40
2022-12-18T19:26:52.050Z,19.05
2022-12-18T19:29:19.337Z,15.10
2022-12-18T19:31:45.811Z,16.73
2022-12-18T19:34:12.851Z,18.27
2022-12-18T19:36:40.682Z,17.17
2022-12-18T19:39:11.042Z,16.05
2022-12-18T19:41:37.438Z,18.05
2022-12-18T19:44:07.664Z,18.42
2022-12-18T19:46:34.715Z,18.55
2022-12-18T19:49:02.480Z,18.55
2022-12-18T19:51:29.844Z,18.60
2022-12-18T19:53:59.095Z,19.42
2022-12-18T19:56:29.744Z,21.27
2022-12-18T19:58:56.291Z,18.80
2022-12-18T20:01:24.187Z,22.10
2022-12-18T20:03:52.455Z,23.98
2022-12-18T20:06:35.053Z,21.27
2022-12-18T20:09:05.201Z,20.67
2022-12-18T20:11:33.100Z,22.73
2022-12-18T20:14:01.169Z,22.65
2022-12-18T20:16:28.045Z,24.42
2022-12-18T20:18:54.606Z,23.10
2022-12-18T20:21:21.234Z,25.58
2022-12-18T20:23:47.573Z,23.17
2022-12-18T20:26:14.003Z,28.25
2022-12-18T20:28:40.804Z,23.35
2022-12-18T20:31:08.338Z,25.45
2022-12-18T20:33:37.595Z,25.58
2022-12-18T20:36:11.085Z,26.00
2022-12-18T20:38:39.032Z,24.85
2022-12-18T20:41:11.728Z,26.92
2022-12-18T20:43:39.116Z,24.30
2022-12-18T20:46:09.015Z,22.58
2022-12-18T20:48:36.012Z,26.65
2022-12-18T20:51:06.061Z,26.10
2022-12-18T20:53:33.474Z,27.50
2022-12-18T20:55:59.941Z,25.65
2022-12-18T20:58:26.266Z,27.55
2022-12-18T21:01:06.954Z,27.98
2022-12-18T21:03:36.473Z,25.92
2022-12-18T21:06:03.411Z,28.50
2022-12-18T21:08:30.069Z,26.17
2022-12-18T21:10:56.650Z,27.88
2022-12-18T21:13:23.605Z,26.38
2022-12-18T21:15:53.301Z,27.08
2022-12-18T21:18:20.206Z,28.25
2022-12-18T21:20:46.506Z,27.35
2022-12-18T21:23:16.662Z,31.83
2022-12-18T21:25:44.280Z,31.15
2022-12-18T21:28:12.007Z,28.25
2022-12-18T21:30:38.663Z,28.23
2022-12-18T21:33:05.055Z,25.60
2022-12-18T21:35:32.033Z,26.50
2022-12-18T21:37:58.550Z,28.85
2022-12-18T21:40:25.135Z,31.45
2022-12-18T21:43:10.187Z,33.03
2022-12-18T21:45:39.598Z,28.00
2022-12-18T21:48:05.979Z,30.30
2022-12-18T21:50:32.311Z,29.65
2022-12-18T21:52:58.659Z,32.15
2022-12-18T21:55:25.008Z,30.13
2022-12-18T21:57:53.668Z,33.55
2022-12-18T22:00:20.103Z,29.65
2022-12-18T22:02:47.408Z,30.05
2022-12-18T22:05:13.959Z,33.22
2022-12-18T22:07:40.357Z,28.88
2022-12-18T22:10:07.319Z,32.78
2022-12-18T22:12:43.732Z,32.47
2022-12-18T22:15:16.288Z,33.90
2022-12-18T22:17:49.686Z,30.40
2022-12-18T22:20:16.166Z,28.98
2022-12-18T22:22:42.501Z,29.35
2022-12-18T22:25:10.570Z,33.50
2022-12-18T22:27:37.624Z,33.80
2022-12-18T22:30:04.737Z,34.78
2022-12-18T22:32:35.713Z,31.38
2022-12-18T22:35:08.376Z,32.53
2022-12-18T22:37:37.079Z,30.50
2022-12-18T22:40:05.090Z,30.60
2022-12-18T22:42:32.498Z,29.77
2022-12-18T22:45:00.084Z,29.35
2022-12-18T22:47:29.774Z,30.05
2022-12-18T22:49:57.318Z,30.25
2022-12-18T22:52:24.785Z,29.63
2022-12-18T22:54:51.314Z,31.98
2022-12-18T22:57:19.863Z,28.75
2022-12-18T22:59:46.178Z,31.13
2022-12-18T23:02:12.596Z,30.92
2022-12-18T23:04:39.667Z,30.38
2022-12-18T23:07:06.056Z,28.58
2022-12-18T23:09:33.089Z,33.53
2022-12-18T23:12:00.155Z,34.40
2022-12-18T23:14:27.487Z,29.38
2022-12-18T23:16:53.801Z,33.20
2022-12-18T23:19:20.976Z,28.77
2022-12-18T23:21:49.812Z,26.40
2022-12-18T23:24:16.127Z,29.52
2022-12-18T23:26:42.466Z,31.40
2022-12-18T23:29:08.760Z,28.38
2022-12-18T23:31:37.033Z,30.83
2022-12-18T23:34:04.713Z,28.90
2022-12-18T23:36:36.909Z,29.10
2022-12-18T23:39:22.334Z,30.23
2022-12-18T23:41:55.776Z,30.88
2022-12-18T23:44:22.381Z,31.88
2022-12-18T23:46:48.800Z,31.40
2022-12-18T23:49:17.242Z,30.50
2022-12-18T23:51:43.562Z,25.70
2022-12-18T23:54:10.303Z,29.77
2022-12-18T23:56:36.626Z,30.02
2022-12-18T23:59:03.149Z,29.63
